Terminal Aerodrome Forecast
Issued by NWS Cleveland, OH

Home | Current Version | Previous Version | Text Only | Print | Product List | Glossary Off
Versions: 1 2 3 4 5 6 7 8 9 10 11 12 13 14 15 16 17 18

301
FTUS41 KCLE 251134
TAFCAK
TAF
KCAK 251134Z 2512/2612 35006KT P6SM SCT018 OVC025
      TEMPO 2512/2514 BKN018
     FM251800 01008KT P6SM BKN035
     FM252200 02006KT P6SM SCT040
     FM260200 05004KT P6SM SKC=

USA.gov is the U.S. government's official web portal to all federal, state and local government web resources and services.